createdAt,value
2018-12-04T00:01:00.989Z,112.20
2018-12-04T00:03:29.580Z,113.03
2018-12-04T00:05:58.178Z,112.00
2018-12-04T00:08:26.752Z,103.43
2018-12-04T00:10:55.344Z,108.73
2018-12-04T00:13:23.943Z,101.63
2018-12-04T00:15:52.527Z,103.13
2018-12-04T00:18:21.132Z,110.53
2018-12-04T00:20:49.725Z,101.10
2018-12-04T00:23:18.301Z,100.20
2018-12-04T00:25:46.896Z,106.23
2018-12-04T00:28:15.468Z,91.53
2018-12-04T00:30:44.061Z,108.63
2018-12-04T00:33:12.641Z,106.33
2018-12-04T00:35:41.217Z,97.80
2018-12-04T00:38:09.842Z,104.43
2018-12-04T00:40:38.432Z,108.27
2018-12-04T00:43:07.025Z,104.10
2018-12-04T00:45:35.609Z,117.40
2018-12-04T00:48:04.200Z,96.67
2018-12-04T00:50:32.809Z,99.93
2018-12-04T00:53:01.379Z,107.37
2018-12-04T00:55:38.249Z,116.90
2018-12-04T00:58:07.032Z,100.40
2018-12-04T01:00:35.612Z,110.77
2018-12-04T01:03:04.332Z,115.70
2018-12-04T01:05:33.075Z,115.70
2018-12-04T01:08:01.639Z,124.00
2018-12-04T01:10:30.228Z,97.97
2018-12-04T01:12:58.818Z,100.57
2018-12-04T01:15:27.386Z,89.03
2018-12-04T01:17:56.001Z,109.60
2018-12-04T01:20:24.705Z,98.20
2018-12-04T01:22:53.284Z,103.80
2018-12-04T01:25:21.885Z,100.97
2018-12-04T01:27:50.432Z,111.60
2018-12-04T01:30:19.036Z,105.27
2018-12-04T01:32:47.628Z,111.43
2018-12-04T01:35:16.225Z,119.43
2018-12-04T01:37:44.840Z,113.93
2018-12-04T01:40:13.458Z,110.90
2018-12-04T01:42:42.069Z,113.70
2018-12-04T01:45:10.653Z,106.73
2018-12-04T01:47:39.253Z,115.30
2018-12-04T01:50:07.874Z,120.77
2018-12-04T01:52:36.476Z,119.57
2018-12-04T01:55:05.212Z,107.63
2018-12-04T01:57:33.812Z,112.80
2018-12-04T02:00:02.531Z,103.33
2018-12-04T02:02:31.263Z,109.60
2018-12-04T02:04:59.841Z,109.13
2018-12-04T02:07:29.009Z,117.17
2018-12-04T02:09:58.457Z,105.40
2018-12-04T02:12:27.043Z,113.53
2018-12-04T02:14:55.683Z,122.30
2018-12-04T02:17:24.641Z,109.50
2018-12-04T02:19:53.212Z,103.13
2018-12-04T02:22:21.785Z,115.27
2018-12-04T02:24:50.365Z,111.87
2018-12-04T02:27:18.940Z,112.30
2018-12-04T02:29:47.549Z,115.20
2018-12-04T02:32:16.125Z,124.60
2018-12-04T02:34:44.703Z,123.73
2018-12-04T02:37:13.294Z,117.87
2018-12-04T02:39:41.874Z,124.50
2018-12-04T02:42:10.456Z,114.20
2018-12-04T02:44:39.046Z,125.73
2018-12-04T02:47:07.630Z,119.40
2018-12-04T02:49:36.273Z,117.77
2018-12-04T02:52:04.851Z,119.33
2018-12-04T02:54:33.433Z,130.50
2018-12-04T02:57:02.029Z,123.60
2018-12-04T02:59:30.605Z,114.63
2018-12-04T03:01:59.336Z,125.40
2018-12-04T03:04:28.144Z,116.50
2018-12-04T03:06:56.740Z,132.10
2018-12-04T03:09:25.360Z,133.90
2018-12-04T03:11:54.236Z,143.17
2018-12-04T03:14:22.808Z,127.83
2018-12-04T03:16:52.345Z,125.20
2018-12-04T03:19:20.940Z,119.67
2018-12-04T03:21:49.512Z,134.10
2018-12-04T03:24:18.164Z,133.40
2018-12-04T03:26:46.737Z,127.00
2018-12-04T03:29:15.334Z,124.07
2018-12-04T03:31:43.921Z,130.93
2018-12-04T03:34:12.491Z,124.07
2018-12-04T03:36:41.110Z,126.43
2018-12-04T03:39:09.763Z,131.27
2018-12-04T03:41:38.780Z,129.37
2018-12-04T03:44:07.322Z,119.20
2018-12-04T03:46:35.936Z,127.13
2018-12-04T03:49:04.596Z,125.73
2018-12-04T03:51:33.187Z,116.53
2018-12-04T03:54:01.763Z,120.57
2018-12-04T03:56:30.353Z,138.63
2018-12-04T03:58:59.060Z,127.43
2018-12-04T04:01:27.661Z,129.70
2018-12-04T04:03:57.101Z,119.53
2018-12-04T04:06:25.686Z,125.27
2018-12-04T04:08:54.293Z,129.93
2018-12-04T04:11:22.880Z,118.23
2018-12-04T04:13:51.609Z,123.30
2018-12-04T04:16:20.306Z,122.13
2018-12-04T04:18:48.928Z,113.40
2018-12-04T04:21:17.926Z,129.63
2018-12-04T04:23:46.500Z,131.43
2018-12-04T04:26:15.103Z,120.40
2018-12-04T04:28:43.797Z,112.20
2018-12-04T04:31:12.497Z,121.13
2018-12-04T04:33:41.096Z,117.93
2018-12-04T04:36:09.788Z,123.30
2018-12-04T04:38:38.393Z,135.53
2018-12-04T04:41:06.965Z,126.40
2018-12-04T04:43:35.542Z,128.27
2018-12-04T04:46:04.144Z,126.40
2018-12-04T04:48:32.684Z,128.93
2018-12-04T04:51:01.324Z,118.80
2018-12-04T04:53:29.918Z,118.27
2018-12-04T04:55:58.493Z,124.73
2018-12-04T04:58:27.089Z,123.43
2018-12-04T05:00:55.667Z,127.33
2018-12-04T05:03:24.297Z,107.00
2018-12-04T05:05:53.003Z,111.67
2018-12-04T05:08:21.591Z,121.80
2018-12-04T05:10:50.118Z,120.57
2018-12-04T05:13:18.745Z,109.90
2018-12-04T05:15:47.330Z,114.00
2018-12-04T05:18:15.937Z,109.43
2018-12-04T05:20:44.501Z,114.43
2018-12-04T05:23:13.077Z,114.03
2018-12-04T05:25:41.660Z,109.53
2018-12-04T05:28:10.233Z,116.43
2018-12-04T05:30:38.845Z,101.37
2018-12-04T05:33:07.417Z,113.47
2018-12-04T05:35:36.005Z,108.27
2018-12-04T05:38:04.614Z,108.90
2018-12-04T05:40:33.200Z,99.23
2018-12-04T05:43:01.778Z,109.83
2018-12-04T05:45:30.369Z,106.90
2018-12-04T05:47:58.948Z,101.63
2018-12-04T05:50:28.236Z,92.50
2018-12-04T05:53:07.916Z,90.50
2018-12-04T05:55:36.517Z,97.07
2018-12-04T05:58:05.092Z,104.60
2018-12-04T06:00:33.661Z,99.70
2018-12-04T06:03:02.388Z,102.30
2018-12-04T06:05:31.018Z,86.67
2018-12-04T06:07:59.589Z,92.47
2018-12-04T06:10:28.152Z,95.20
2018-12-04T06:12:56.725Z,98.93
2018-12-04T06:15:25.292Z,96.93
2018-12-04T06:17:53.885Z,93.00
2018-12-04T06:20:22.461Z,80.03
2018-12-04T06:22:51.049Z,92.67
2018-12-04T06:25:19.620Z,89.03
2018-12-04T06:27:48.196Z,88.70
2018-12-04T06:30:16.813Z,91.60
2018-12-04T06:32:45.489Z,106.47
2018-12-04T06:35:14.219Z,80.03
2018-12-04T06:37:42.800Z,95.07
2018-12-04T06:40:11.364Z,80.67
2018-12-04T06:42:39.932Z,73.57
2018-12-04T06:45:08.530Z,75.03
2018-12-04T06:47:37.132Z,85.60
2018-12-04T06:50:08.094Z,97.07
2018-12-04T06:52:36.676Z,78.40
2018-12-04T06:55:05.857Z,87.47
2018-12-04T06:57:34.485Z,72.63
2018-12-04T07:00:03.866Z,76.97
2018-12-04T07:02:32.473Z,77.83
2018-12-04T07:05:01.046Z,78.53
2018-12-04T07:07:29.620Z,89.63
2018-12-04T07:09:58.196Z,85.73
2018-12-04T07:12:27.173Z,81.37
2018-12-04T07:14:55.745Z,81.40
2018-12-04T07:17:24.320Z,85.37
2018-12-04T07:19:52.913Z,84.50
2018-12-04T07:22:21.509Z,85.33
2018-12-04T07:24:50.085Z,86.17
2018-12-04T07:27:18.693Z,75.73
2018-12-04T07:29:47.261Z,67.23
2018-12-04T07:32:15.852Z,82.13
2018-12-04T07:34:44.928Z,95.23
2018-12-04T07:37:13.495Z,76.80
2018-12-04T07:39:42.076Z,83.07
2018-12-04T07:42:10.642Z,81.03
2018-12-04T07:44:39.214Z,80.53
2018-12-04T07:47:07.768Z,84.13
2018-12-04T07:49:36.972Z,87.00
2018-12-04T07:52:05.955Z,85.10
2018-12-04T07:54:34.528Z,82.73
2018-12-04T07:57:03.228Z,85.73
2018-12-04T07:59:31.810Z,73.73
2018-12-04T08:02:00.376Z,92.93
2018-12-04T08:04:28.950Z,78.03
2018-12-04T08:06:57.554Z,73.43
2018-12-04T08:09:26.153Z,78.27
2018-12-04T08:11:54.801Z,69.60
2018-12-04T08:14:23.402Z,77.70
2018-12-04T08:16:51.997Z,67.50
2018-12-04T08:19:20.564Z,68.33
2018-12-04T08:21:49.184Z,73.30
2018-12-04T08:24:17.753Z,67.87
2018-12-04T08:26:46.359Z,69.77
2018-12-04T08:29:15.057Z,69.67
2018-12-04T08:31:43.648Z,65.37
2018-12-04T08:34:12.239Z,72.53
2018-12-04T08:36:40.820Z,68.97
2018-12-04T08:39:13.044Z,71.40
2018-12-04T08:41:40.005Z,73.50
2018-12-04T08:44:08.577Z,74.93
2018-12-04T08:46:37.153Z,77.13
2018-12-04T08:49:05.771Z,79.30
2018-12-04T08:51:34.384Z,85.47
2018-12-04T08:54:02.985Z,92.43
2018-12-04T08:56:31.585Z,90.03
2018-12-04T08:59:00.184Z,93.53
2018-12-04T09:01:28.769Z,90.97
2018-12-04T09:03:59.249Z,94.83
2018-12-04T09:06:32.154Z,107.23
2018-12-04T09:09:00.752Z,91.03
2018-12-04T09:11:29.348Z,90.60
2018-12-04T09:13:57.921Z,94.27
2018-12-04T09:16:26.532Z,96.37
2018-12-04T09:18:56.029Z,84.73
2018-12-04T09:21:24.718Z,103.83
2018-12-04T09:23:53.441Z,93.77
2018-12-04T09:26:22.151Z,98.50
2018-12-04T09:28:50.818Z,102.23
2018-12-04T09:31:19.533Z,115.10
2018-12-04T09:33:48.108Z,106.47
2018-12-04T09:36:16.710Z,105.57
2018-12-04T09:38:45.332Z,94.40
2018-12-04T09:41:13.920Z,99.10
2018-12-04T09:43:42.484Z,86.83
2018-12-04T09:46:11.055Z,93.37
2018-12-04T09:48:39.664Z,91.17
2018-12-04T09:51:08.401Z,100.80
2018-12-04T09:53:36.968Z,97.67
2018-12-04T09:56:05.536Z,94.20
2018-12-04T09:58:34.116Z,91.13
2018-12-04T10:01:02.709Z,75.20
2018-12-04T10:03:31.271Z,76.80
2018-12-04T10:05:59.861Z,74.27
2018-12-04T10:08:28.443Z,77.00
2018-12-04T10:10:57.014Z,80.97
2018-12-04T10:13:25.601Z,92.13
2018-12-04T10:15:54.172Z,77.43
2018-12-04T10:18:23.614Z,78.93
2018-12-04T10:20:52.213Z,74.73
2018-12-04T10:23:20.769Z,75.70
2018-12-04T10:25:50.890Z,72.67
2018-12-04T10:28:20.306Z,66.83
2018-12-04T10:30:54.002Z,69.17
2018-12-04T10:33:22.576Z,64.23
2018-12-04T10:35:51.199Z,66.03
2018-12-04T10:38:19.777Z,64.40
2018-12-04T10:40:48.376Z,60.03
2018-12-04T10:43:16.945Z,56.80
2018-12-04T10:45:45.529Z,49.83
2018-12-04T10:48:14.141Z,40.70
2018-12-04T10:50:42.740Z,45.23
2018-12-04T10:53:11.322Z,43.50
2018-12-04T10:55:39.913Z,27.07
2018-12-04T10:58:08.506Z,35.20
2018-12-04T11:00:41.301Z,35.43
2018-12-04T11:03:13.986Z,40.77
2018-12-04T11:05:43.029Z,38.20
2018-12-04T11:08:11.625Z,38.03
2018-12-04T11:10:40.225Z,39.10
2018-12-04T11:13:08.822Z,33.83
2018-12-04T11:15:37.405Z,36.30
2018-12-04T11:18:06.568Z,39.07
2018-12-04T11:20:35.479Z,39.30
2018-12-04T11:23:04.075Z,29.10
2018-12-04T11:25:32.645Z,37.90
2018-12-04T11:28:01.239Z,40.13
2018-12-04T11:30:29.852Z,36.97
2018-12-04T11:32:58.869Z,38.73
2018-12-04T11:35:27.444Z,31.87
2018-12-04T11:37:56.028Z,38.17
2018-12-04T11:40:24.617Z,21.30
2018-12-04T11:42:53.184Z,33.23
2018-12-04T11:45:21.897Z,31.27
2018-12-04T11:47:50.469Z,37.00
2018-12-04T11:50:19.061Z,39.37
2018-12-04T11:52:47.610Z,38.10
2018-12-04T11:55:16.224Z,50.33
2018-12-04T11:57:44.816Z,47.10
2018-12-04T12:00:19.561Z,41.90
2018-12-04T12:02:48.157Z,42.73
2018-12-04T12:05:16.754Z,45.30
2018-12-04T12:07:45.328Z,43.77
2018-12-04T12:10:13.954Z,45.17
2018-12-04T12:12:42.542Z,50.10
2018-12-04T12:15:11.125Z,53.23
2018-12-04T12:17:39.732Z,44.73
2018-12-04T12:20:09.396Z,46.60
2018-12-04T12:22:37.927Z,42.80
2018-12-04T12:25:06.717Z,45.10
2018-12-04T12:27:35.770Z,42.07
2018-12-04T12:30:05.268Z,45.67
2018-12-04T12:32:33.892Z,43.37
2018-12-04T12:35:02.556Z,45.63
2018-12-04T12:37:31.165Z,46.90
2018-12-04T12:39:59.689Z,49.33
2018-12-04T12:42:28.347Z,49.07
2018-12-04T12:44:56.994Z,43.33
2018-12-04T12:47:25.816Z,45.00
2018-12-04T12:49:54.421Z,43.73
2018-12-04T12:52:23.053Z,44.63
2018-12-04T12:54:51.636Z,43.70
2018-12-04T12:57:21.118Z,46.93
2018-12-04T12:59:49.715Z,43.33
2018-12-04T13:02:18.281Z,46.63
2018-12-04T13:04:46.852Z,42.67
2018-12-04T13:07:15.431Z,45.93
2018-12-04T13:09:44.100Z,43.47
2018-12-04T13:12:12.684Z,43.93
2018-12-04T13:14:41.250Z,38.27
2018-12-04T13:17:09.872Z,42.60
2018-12-04T13:19:39.264Z,40.00
2018-12-04T13:22:07.844Z,39.80
2018-12-04T13:24:36.437Z,41.03
2018-12-04T13:27:05.088Z,45.10
2018-12-04T13:29:33.653Z,37.33
2018-12-04T13:32:02.241Z,38.13
2018-12-04T13:34:30.817Z,35.67
2018-12-04T13:36:59.783Z,36.03
2018-12-04T13:39:28.388Z,36.57
2018-12-04T13:41:56.953Z,38.50
2018-12-04T13:44:25.537Z,37.13
2018-12-04T13:46:54.148Z,38.10
2018-12-04T13:49:22.712Z,37.83
2018-12-04T13:51:51.441Z,43.23
2018-12-04T13:54:20.133Z,39.00
2018-12-04T13:56:48.724Z,38.47
2018-12-04T13:59:17.328Z,35.33
2018-12-04T14:01:45.919Z,31.53
2018-12-04T14:04:17.209Z,37.57
2018-12-04T14:06:45.677Z,32.50
2018-12-04T14:09:14.365Z,41.13
2018-12-04T14:11:43.040Z,32.17
2018-12-04T14:14:11.767Z,29.07
2018-12-04T14:16:40.340Z,31.13
2018-12-04T14:19:08.922Z,32.37
2018-12-04T14:21:37.658Z,33.40
2018-12-04T14:24:06.260Z,29.30
2018-12-04T14:26:34.883Z,28.97
2018-12-04T14:29:03.632Z,28.97
2018-12-04T14:31:32.295Z,27.87
2018-12-04T14:34:01.197Z,26.33
2018-12-04T14:36:29.813Z,29.50
2018-12-04T14:38:58.541Z,29.40
2018-12-04T14:41:27.266Z,30.90
2018-12-04T14:43:55.979Z,26.90
2018-12-04T14:46:24.668Z,29.33
2018-12-04T14:48:53.394Z,31.70
2018-12-04T14:51:22.109Z,33.50
2018-12-04T14:53:50.802Z,39.83
2018-12-04T14:56:19.373Z,38.13
2018-12-04T14:58:47.973Z,38.67
2018-12-04T15:01:16.683Z,37.00
2018-12-04T15:03:45.398Z,42.60
2018-12-04T15:06:14.133Z,38.17
2018-12-04T15:08:43.045Z,44.30
2018-12-04T15:11:11.969Z,53.47
2018-12-04T15:13:40.591Z,45.80
2018-12-04T15:16:09.279Z,44.60
2018-12-04T15:18:37.957Z,44.47
2018-12-04T15:21:06.594Z,44.93
2018-12-04T15:23:35.249Z,51.07
2018-12-04T15:26:03.976Z,48.90
2018-12-04T15:28:32.593Z,50.40
2018-12-04T15:31:01.179Z,48.20
2018-12-04T15:33:29.873Z,48.23
2018-12-04T15:35:58.548Z,49.10
2018-12-04T15:38:27.155Z,53.63
2018-12-04T15:40:55.874Z,50.83
2018-12-04T15:43:24.519Z,57.90
2018-12-04T15:45:53.265Z,47.37
2018-12-04T15:48:21.928Z,47.33
2018-12-04T15:50:50.504Z,47.87
2018-12-04T15:53:19.301Z,48.67
2018-12-04T15:55:48.125Z,56.30
2018-12-04T15:58:16.689Z,51.83
2018-12-04T16:00:45.290Z,54.30
2018-12-04T16:03:14.756Z,60.10
2018-12-04T16:05:43.320Z,65.33
2018-12-04T16:08:11.870Z,60.77
2018-12-04T16:10:40.486Z,57.97
2018-12-04T16:13:09.095Z,57.03
2018-12-04T16:15:37.665Z,58.30
2018-12-04T16:18:06.233Z,64.67
2018-12-04T16:20:34.827Z,56.87
2018-12-04T16:23:03.539Z,61.33
2018-12-04T16:25:32.114Z,60.83
2018-12-04T16:28:00.689Z,56.93
2018-12-04T16:30:29.254Z,63.37
2018-12-04T16:32:57.832Z,71.10
2018-12-04T16:35:26.397Z,62.43
2018-12-04T16:37:55.929Z,68.27
2018-12-04T16:40:24.493Z,67.17
2018-12-04T16:42:53.109Z,73.00
2018-12-04T16:45:21.693Z,59.23
2018-12-04T16:47:50.267Z,75.90
2018-12-04T16:50:18.869Z,71.40
2018-12-04T16:52:47.464Z,76.60
2018-12-04T16:55:16.078Z,69.70
2018-12-04T16:57:44.640Z,72.57
2018-12-04T17:00:13.484Z,75.83
2018-12-04T17:02:42.091Z,78.60
2018-12-04T17:05:10.636Z,72.27
2018-12-04T17:07:39.256Z,61.27
2018-12-04T17:10:08.872Z,67.60
2018-12-04T17:12:37.440Z,61.37
2018-12-04T17:15:06.957Z,61.13
2018-12-04T17:17:35.612Z,65.50
2018-12-04T17:20:04.352Z,58.67
2018-12-04T17:22:33.084Z,62.23
2018-12-04T17:25:01.669Z,56.93
2018-12-04T17:27:30.249Z,61.67
2018-12-04T17:29:58.889Z,63.60
2018-12-04T17:32:29.216Z,68.83
2018-12-04T17:34:57.813Z,62.40
2018-12-04T17:37:26.464Z,66.17
2018-12-04T17:39:55.029Z,65.07
2018-12-04T17:42:23.565Z,59.53
2018-12-04T17:44:52.208Z,55.40
2018-12-04T17:47:20.813Z,59.50
2018-12-04T17:49:49.409Z,57.33
2018-12-04T17:52:17.998Z,55.57
2018-12-04T17:54:46.607Z,57.23
2018-12-04T17:57:15.229Z,61.90
2018-12-04T17:59:43.806Z,58.77
2018-12-04T18:02:12.725Z,55.73
2018-12-04T18:04:41.325Z,58.90
2018-12-04T18:07:09.896Z,55.53
2018-12-04T18:09:38.472Z,55.67
2018-12-04T18:12:07.048Z,60.57
2018-12-04T18:14:35.651Z,52.50
2018-12-04T18:17:04.233Z,64.63
2018-12-04T18:19:32.845Z,54.07
2018-12-04T18:22:01.657Z,60.57
2018-12-04T18:24:30.274Z,59.67
2018-12-04T18:26:59.026Z,54.87
2018-12-04T18:29:27.589Z,52.77
2018-12-04T18:31:56.188Z,65.57
2018-12-04T18:34:24.774Z,58.87
2018-12-04T18:36:53.349Z,67.10
2018-12-04T18:39:21.965Z,72.63
2018-12-04T18:41:50.535Z,67.70
2018-12-04T18:44:19.965Z,65.47
2018-12-04T18:46:48.578Z,58.70
2018-12-04T18:49:17.300Z,60.43
2018-12-04T18:51:46.797Z,55.10
2018-12-04T18:54:15.812Z,56.03
2018-12-04T18:56:44.374Z,48.90
2018-12-04T18:59:12.969Z,53.73
2018-12-04T19:01:41.560Z,48.40
2018-12-04T19:04:10.165Z,50.03
2018-12-04T19:06:38.773Z,54.60
2018-12-04T19:09:09.068Z,48.73
2018-12-04T19:11:38.913Z,45.17
2018-12-04T19:14:07.688Z,46.27
2018-12-04T19:16:36.310Z,51.37
2018-12-04T19:19:05.172Z,47.70
2018-12-04T19:21:33.841Z,51.53
2018-12-04T19:24:02.494Z,49.40
2018-12-04T19:26:31.192Z,49.83
2018-12-04T19:28:59.801Z,55.27
2018-12-04T19:31:28.389Z,47.67
2018-12-04T19:33:57.101Z,50.10
2018-12-04T19:36:25.806Z,57.00
2018-12-04T19:38:54.372Z,44.00
2018-12-04T19:41:22.957Z,53.37
2018-12-04T19:43:56.346Z,49.73
2018-12-04T19:46:22.209Z,61.83
2018-12-04T19:48:50.806Z,53.33
2018-12-04T19:51:19.404Z,46.80
2018-12-04T19:53:47.960Z,58.73
2018-12-04T19:56:16.553Z,54.67
2018-12-04T19:58:45.152Z,66.10
2018-12-04T20:01:13.737Z,53.17
2018-12-04T20:03:42.735Z,59.13
2018-12-04T20:06:11.373Z,56.10
2018-12-04T20:08:45.189Z,57.80
2018-12-04T20:11:13.798Z,52.57
2018-12-04T20:13:42.386Z,49.20
2018-12-04T20:16:10.959Z,55.33
2018-12-04T20:18:39.562Z,52.83
2018-12-04T20:21:08.144Z,43.00
2018-12-04T20:23:36.750Z,45.70
2018-12-04T20:26:05.377Z,47.40
2018-12-04T20:28:33.949Z,46.40
2018-12-04T20:31:02.529Z,47.47
2018-12-04T20:33:31.124Z,45.43
2018-12-04T20:35:59.698Z,50.10
2018-12-04T20:38:28.453Z,44.60
2018-12-04T20:40:57.057Z,39.83
2018-12-04T20:43:30.067Z,48.23
2018-12-04T20:46:05.656Z,42.97
2018-12-04T20:48:29.256Z,47.07
2018-12-04T20:50:57.893Z,43.60
2018-12-04T20:53:26.462Z,40.83
2018-12-04T20:55:55.040Z,45.47
2018-12-04T20:58:23.704Z,45.17
2018-12-04T21:00:52.321Z,39.90
2018-12-04T21:03:20.936Z,37.10
2018-12-04T21:05:49.536Z,42.77
2018-12-04T21:08:18.147Z,43.87
2018-12-04T21:10:46.760Z,40.13
2018-12-04T21:13:15.473Z,38.97
2018-12-04T21:15:44.003Z,36.03
2018-12-04T21:18:12.632Z,44.80
2018-12-04T21:20:41.215Z,43.40
2018-12-04T21:23:09.781Z,35.13
2018-12-04T21:25:38.381Z,39.27
2018-12-04T21:28:12.240Z,39.67
2018-12-04T21:30:46.008Z,41.63
2018-12-04T21:33:19.794Z,37.20
2018-12-04T21:35:53.739Z,38.27
2018-12-04T21:38:27.709Z,42.97
2018-12-04T21:41:02.379Z,36.87
2018-12-04T21:43:36.193Z,38.97
2018-12-04T21:46:14.456Z,39.73
2018-12-04T21:48:43.040Z,33.77
2018-12-04T21:51:11.637Z,34.00
2018-12-04T21:53:40.246Z,38.27
2018-12-04T21:56:08.841Z,33.73
2018-12-04T21:58:37.405Z,32.63
2018-12-04T22:01:06.033Z,36.57
2018-12-04T22:03:34.624Z,33.43
2018-12-04T22:06:03.237Z,35.73
2018-12-04T22:08:31.842Z,33.40
2018-12-04T22:11:00.418Z,37.57
2018-12-04T22:13:29.024Z,36.47
2018-12-04T22:15:57.600Z,33.60
2018-12-04T22:18:26.162Z,37.47
2018-12-04T22:20:54.766Z,42.23
2018-12-04T22:23:23.346Z,35.10
2018-12-04T22:25:51.917Z,34.50
2018-12-04T22:28:20.497Z,33.93
2018-12-04T22:30:49.080Z,39.00
2018-12-04T22:33:17.651Z,32.20
2018-12-04T22:35:46.284Z,33.77
2018-12-04T22:38:14.881Z,33.97
2018-12-04T22:40:43.473Z,30.90
2018-12-04T22:43:12.037Z,32.57
2018-12-04T22:45:40.646Z,29.40
2018-12-04T22:48:09.560Z,34.60
2018-12-04T22:50:38.143Z,33.80
2018-12-04T22:53:06.728Z,31.17
2018-12-04T22:55:35.304Z,35.63
2018-12-04T22:58:03.937Z,32.60
2018-12-04T23:00:40.071Z,33.30
2018-12-04T23:03:08.974Z,29.67
2018-12-04T23:05:37.671Z,32.63
2018-12-04T23:08:06.290Z,26.20
2018-12-04T23:10:34.905Z,33.23
2018-12-04T23:13:03.604Z,28.07
2018-12-04T23:15:32.192Z,26.93
2018-12-04T23:18:00.797Z,25.77
2018-12-04T23:20:29.388Z,34.27
2018-12-04T23:22:57.980Z,30.73
2018-12-04T23:25:26.566Z,29.63
2018-12-04T23:27:55.144Z,29.60
2018-12-04T23:30:23.757Z,27.23
2018-12-04T23:32:52.329Z,26.13
2018-12-04T23:35:21.252Z,27.20
2018-12-04T23:37:49.854Z,24.50
2018-12-04T23:40:18.429Z,27.87
2018-12-04T23:42:47.025Z,25.30
2018-12-04T23:45:15.617Z,25.33
2018-12-04T23:47:44.194Z,29.13
2018-12-04T23:50:12.925Z,26.87
2018-12-04T23:52:41.493Z,23.17
2018-12-04T23:55:10.077Z,30.47
2018-12-04T23:57:38.657Z,27.83
